createdAt,value
2022-10-08T00:01:30.968Z,3.13
2022-10-08T00:03:59.011Z,3.17
2022-10-08T00:06:29.861Z,3.50
2022-10-08T00:08:59.832Z,3.20
2022-10-08T00:11:31.345Z,3.57
2022-10-08T00:13:59.799Z,3.00
2022-10-08T00:16:29.676Z,3.20
2022-10-08T00:19:00.807Z,3.13
2022-10-08T00:21:31.494Z,3.27
2022-10-08T00:24:01.306Z,3.17
2022-10-08T00:26:33.072Z,3.00
2022-10-08T00:29:02.894Z,3.23
2022-10-08T00:31:32.880Z,3.60
2022-10-08T00:34:02.880Z,3.30
2022-10-08T00:36:32.618Z,3.03
2022-10-08T00:39:02.212Z,3.67
2022-10-08T00:41:33.982Z,3.37
2022-10-08T00:44:04.180Z,3.37
2022-10-08T00:46:36.258Z,3.57
2022-10-08T00:49:07.547Z,3.57
2022-10-08T00:51:35.495Z,3.33
2022-10-08T00:54:05.180Z,3.27
2022-10-08T00:56:37.263Z,3.40
2022-10-08T00:59:05.736Z,3.30
2022-10-08T01:01:33.808Z,3.07
2022-10-08T01:04:06.044Z,3.40
2022-10-08T01:06:43.147Z,3.20
2022-10-08T01:09:19.155Z,3.03
2022-10-08T01:11:51.961Z,3.37
2022-10-08T01:14:30.400Z,3.20
2022-10-08T01:17:06.763Z,2.80
2022-10-08T01:19:56.090Z,2.80
2022-10-08T01:22:38.726Z,2.30
2022-10-08T01:25:33.777Z,2.60
2022-10-08T01:28:12.208Z,2.73
2022-10-08T01:30:46.447Z,3.00
2022-10-08T01:33:22.653Z,2.60
2022-10-08T01:35:56.189Z,2.70
2022-10-08T01:38:27.202Z,3.40
2022-10-08T01:40:59.059Z,3.03
2022-10-08T01:43:32.074Z,3.23
2022-10-08T01:46:06.987Z,3.07
2022-10-08T01:48:37.009Z,2.60
2022-10-08T01:51:09.708Z,3.30
2022-10-08T01:53:42.647Z,3.40
2022-10-08T01:56:12.981Z,3.63
2022-10-08T01:58:49.871Z,3.07
2022-10-08T02:01:23.496Z,3.70
2022-10-08T02:04:10.436Z,3.10
2022-10-08T02:06:42.800Z,3.50
2022-10-08T02:09:11.561Z,2.93
2022-10-08T02:11:39.463Z,3.10
2022-10-08T02:14:09.406Z,2.80
2022-10-08T02:16:44.100Z,3.20
2022-10-08T02:19:19.486Z,3.23
2022-10-08T02:21:47.589Z,3.00
2022-10-08T02:24:19.537Z,3.90
2022-10-08T02:26:49.371Z,3.13
2022-10-08T02:29:21.559Z,3.77
2022-10-08T02:31:54.678Z,2.63
2022-10-08T02:34:27.149Z,2.63
2022-10-08T02:37:02.091Z,3.00
2022-10-08T02:39:33.761Z,2.73
2022-10-08T02:42:05.527Z,2.47
2022-10-08T02:44:39.678Z,2.10
2022-10-08T02:47:11.299Z,2.67
2022-10-08T02:49:43.611Z,2.30
2022-10-08T02:52:13.364Z,2.00
2022-10-08T02:54:44.236Z,2.50
2022-10-08T02:57:17.113Z,2.10
2022-10-08T02:59:48.376Z,2.00
2022-10-08T03:02:21.147Z,2.13
2022-10-08T03:04:54.453Z,2.40
2022-10-08T03:07:24.482Z,2.60
2022-10-08T03:09:54.608Z,2.47
2022-10-08T03:12:22.589Z,2.10
2022-10-08T03:14:52.968Z,2.20
2022-10-08T03:17:25.039Z,2.30
2022-10-08T03:19:53.231Z,2.33
2022-10-08T03:22:21.218Z,2.40
2022-10-08T03:24:52.695Z,1.93
2022-10-08T03:27:22.733Z,2.03
2022-10-08T03:29:56.849Z,2.33
2022-10-08T03:32:24.948Z,2.20
2022-10-08T03:34:53.265Z,2.40
2022-10-08T03:37:21.544Z,2.10
2022-10-08T03:39:49.439Z,2.17
2022-10-08T03:42:17.360Z,2.13
2022-10-08T03:44:45.272Z,1.93
2022-10-08T03:47:14.476Z,2.37
2022-10-08T03:49:42.429Z,1.90
2022-10-08T03:52:10.293Z,2.00
2022-10-08T03:54:39.170Z,1.70
2022-10-08T03:57:07.072Z,2.20
2022-10-08T03:59:34.953Z,2.17
2022-10-08T04:02:02.846Z,1.83
2022-10-08T04:04:32.109Z,1.90
2022-10-08T04:06:59.975Z,2.30
2022-10-08T04:09:27.904Z,2.00
2022-10-08T04:11:55.795Z,2.57
2022-10-08T04:14:23.691Z,2.60
2022-10-08T04:16:51.540Z,2.90
2022-10-08T04:19:19.362Z,2.87
2022-10-08T04:21:48.609Z,3.00
2022-10-08T04:24:16.507Z,3.83
2022-10-08T04:26:44.423Z,4.93
2022-10-08T04:29:12.981Z,7.17
2022-10-08T04:31:41.152Z,7.90
2022-10-08T04:34:10.756Z,7.80
2022-10-08T04:36:39.759Z,9.97
2022-10-08T04:39:09.180Z,10.30
2022-10-08T04:41:37.093Z,11.20
2022-10-08T04:44:05.032Z,11.10
2022-10-08T04:46:32.926Z,11.17
2022-10-08T04:49:01.067Z,13.03
2022-10-08T04:51:29.454Z,13.73
2022-10-08T04:53:58.666Z,13.63
2022-10-08T04:56:29.589Z,12.60
2022-10-08T04:58:59.124Z,14.50
2022-10-08T05:01:28.494Z,14.50
2022-10-08T05:03:58.347Z,15.23
2022-10-08T05:06:29.101Z,17.53
2022-10-08T05:08:58.137Z,15.20
2022-10-08T05:11:28.619Z,15.10
2022-10-08T05:13:58.008Z,15.43
2022-10-08T05:16:27.068Z,16.77
2022-10-08T05:18:55.411Z,15.87
2022-10-08T05:21:25.364Z,17.13
2022-10-08T05:23:56.929Z,17.60
2022-10-08T05:26:56.401Z,20.03
2022-10-08T05:29:16.255Z,17.90
2022-10-08T05:31:44.167Z,18.47
2022-10-08T05:34:13.696Z,17.87
2022-10-08T05:36:41.636Z,18.87
2022-10-08T05:39:09.566Z,17.33
2022-10-08T05:41:39.065Z,17.53
2022-10-08T05:44:07.935Z,21.93
2022-10-08T05:46:37.275Z,18.20
2022-10-08T05:49:07.745Z,19.47
2022-10-08T05:51:36.111Z,20.23
2022-10-08T05:54:04.097Z,20.30
2022-10-08T05:56:32.132Z,20.57
2022-10-08T05:59:01.372Z,22.47
2022-10-08T06:01:31.786Z,23.50
2022-10-08T06:04:07.005Z,25.53
2022-10-08T06:06:36.632Z,24.00
2022-10-08T06:09:05.736Z,22.87
2022-10-08T06:11:36.009Z,23.23
2022-10-08T06:14:07.086Z,23.90
2022-10-08T06:16:36.236Z,23.53
2022-10-08T06:19:05.208Z,23.00
2022-10-08T06:21:33.299Z,24.03
2022-10-08T06:24:02.819Z,23.60
2022-10-08T06:26:35.659Z,24.70
2022-10-08T06:29:06.503Z,23.10
2022-10-08T06:31:35.459Z,21.07
2022-10-08T06:34:04.425Z,21.60
2022-10-08T06:36:33.694Z,20.83
2022-10-08T06:39:03.314Z,17.77
2022-10-08T06:41:33.273Z,21.30
2022-10-08T06:44:01.270Z,18.77
2022-10-08T06:46:32.250Z,18.97
2022-10-08T06:49:01.359Z,17.50
2022-10-08T06:51:30.436Z,18.60
2022-10-08T06:54:06.012Z,16.93
2022-10-08T06:56:36.587Z,18.80
2022-10-08T06:59:05.112Z,17.23
2022-10-08T07:01:35.304Z,16.83
2022-10-08T07:04:05.320Z,16.47
2022-10-08T07:06:33.250Z,16.93
2022-10-08T07:09:02.683Z,15.57
2022-10-08T07:11:32.002Z,15.63
2022-10-08T07:14:00.327Z,15.33
2022-10-08T07:16:29.377Z,14.40
2022-10-08T07:18:59.331Z,14.37
2022-10-08T07:21:28.537Z,13.60
2022-10-08T07:23:57.288Z,13.23
2022-10-08T07:26:26.884Z,11.33
2022-10-08T07:28:56.604Z,11.77
2022-10-08T07:31:27.980Z,11.93
2022-10-08T07:33:58.036Z,10.67
2022-10-08T07:36:26.843Z,10.83
2022-10-08T07:38:55.586Z,9.60
2022-10-08T07:41:24.044Z,9.33
2022-10-08T07:43:53.544Z,8.70
2022-10-08T07:46:22.259Z,10.53
2022-10-08T07:48:50.706Z,9.47
2022-10-08T07:51:21.545Z,8.60
2022-10-08T07:53:49.763Z,9.07
2022-10-08T07:56:19.368Z,8.03
2022-10-08T07:58:48.255Z,7.40
2022-10-08T08:01:19.171Z,8.43
2022-10-08T08:03:47.260Z,7.37
2022-10-08T08:06:16.805Z,6.97
2022-10-08T08:08:46.796Z,7.00
2022-10-08T08:11:17.421Z,6.30
2022-10-08T08:13:45.808Z,5.60
2022-10-08T08:16:16.098Z,6.17
2022-10-08T08:18:45.695Z,5.67
2022-10-08T08:21:16.159Z,5.60
2022-10-08T08:23:48.100Z,5.63
2022-10-08T08:26:18.340Z,5.90
2022-10-08T08:28:46.343Z,5.10
2022-10-08T08:31:15.860Z,5.20
2022-10-08T08:33:44.975Z,4.70
2022-10-08T08:36:12.861Z,4.50
2022-10-08T08:38:41.094Z,4.70
2022-10-08T08:41:29.420Z,4.60
2022-10-08T08:44:02.461Z,4.93
2022-10-08T08:46:36.402Z,4.93
2022-10-08T08:49:12.451Z,3.80
2022-10-08T08:51:40.345Z,3.80
2022-10-08T08:54:08.224Z,4.43
2022-10-08T08:56:37.524Z,3.57
2022-10-08T08:59:09.121Z,3.83
2022-10-08T09:01:42.700Z,4.43
2022-10-08T09:04:25.868Z,4.00
2022-10-08T09:09:21.491Z,4.30
2022-10-08T09:11:49.521Z,4.77
2022-10-08T09:14:35.703Z,4.67
2022-10-08T09:17:14.091Z,4.00
2022-10-08T09:19:42.271Z,3.67
2022-10-08T09:22:21.624Z,3.80
2022-10-08T09:24:54.120Z,4.00
2022-10-08T09:27:22.136Z,3.80
2022-10-08T09:29:49.992Z,3.90
2022-10-08T09:32:20.003Z,3.70
2022-10-08T09:34:48.914Z,3.30
2022-10-08T09:37:22.969Z,3.20
2022-10-08T09:40:19.865Z,2.87
2022-10-08T09:43:09.843Z,2.30
2022-10-08T09:45:41.169Z,2.30
2022-10-08T09:48:23.668Z,2.30
2022-10-08T09:50:59.567Z,1.80
2022-10-08T09:53:31.015Z,1.80
2022-10-08T09:56:02.628Z,2.10
2022-10-08T09:58:33.074Z,1.73
2022-10-08T10:01:04.705Z,1.40
2022-10-08T10:03:33.339Z,1.70
2022-10-08T10:06:01.949Z,1.70
2022-10-08T10:08:49.703Z,1.87
2022-10-08T10:11:25.399Z,1.50
2022-10-08T10:13:53.795Z,1.33
2022-10-08T10:16:27.115Z,1.50
2022-10-08T10:18:59.765Z,1.30
2022-10-08T10:21:39.989Z,1.40
2022-10-08T10:24:29.389Z,1.47
2022-10-08T10:27:04.812Z,1.30
2022-10-08T10:29:42.404Z,1.30
2022-10-08T10:32:20.855Z,1.50
2022-10-08T10:35:03.499Z,1.57
2022-10-08T10:37:39.818Z,1.40
2022-10-08T10:40:30.623Z,1.30
2022-10-08T10:43:18.212Z,1.40
2022-10-08T10:45:52.824Z,1.30
2022-10-08T10:48:20.858Z,1.20
2022-10-08T10:51:01.284Z,1.67
2022-10-08T10:53:36.789Z,1.30
2022-10-08T10:56:13.463Z,1.17
2022-10-08T10:58:58.659Z,1.40
2022-10-08T11:01:36.449Z,1.37
2022-10-08T11:04:11.591Z,1.27
2022-10-08T11:06:54.952Z,1.53
2022-10-08T11:09:32.980Z,1.50
2022-10-08T11:12:06.063Z,1.30
2022-10-08T11:14:56.043Z,1.33
2022-10-08T11:17:49.092Z,1.50
2022-10-08T11:20:37.845Z,1.17
2022-10-08T11:23:18.377Z,1.20
2022-10-08T11:26:16.531Z,1.40
2022-10-08T11:28:48.365Z,1.40
2022-10-08T11:31:29.375Z,1.30
2022-10-08T11:33:58.508Z,1.30
2022-10-08T11:36:36.076Z,1.10
2022-10-08T11:39:14.064Z,1.10
2022-10-08T11:41:48.969Z,1.23
2022-10-08T11:44:18.387Z,1.30
2022-10-08T11:46:47.932Z,1.20
2022-10-08T11:49:54.961Z,1.40
2022-10-08T11:52:23.016Z,1.20
2022-10-08T11:54:55.817Z,1.30
2022-10-08T11:57:49.215Z,1.60
2022-10-08T12:00:38.873Z,1.20
2022-10-08T12:03:24.187Z,1.60
2022-10-08T12:05:54.623Z,1.47
2022-10-08T12:08:53.818Z,1.40
2022-10-08T12:11:50.730Z,1.43
2022-10-08T12:14:32.036Z,1.40
2022-10-08T12:17:09.859Z,1.47
2022-10-08T12:20:19.154Z,1.47
2022-10-08T12:23:01.425Z,1.50
2022-10-08T12:25:39.139Z,1.30
2022-10-08T12:28:52.391Z,1.20
2022-10-08T12:31:28.007Z,1.40
2022-10-08T12:34:04.852Z,1.30
2022-10-08T12:36:53.347Z,1.40
2022-10-08T12:39:33.111Z,1.50
2022-10-08T12:42:09.496Z,1.30
2022-10-08T12:44:49.983Z,1.10
2022-10-08T12:47:27.338Z,1.50
2022-10-08T12:50:01.282Z,1.47
2022-10-08T12:52:34.984Z,1.30
2022-10-08T12:55:05.496Z,1.20
2022-10-08T12:57:36.943Z,1.30
2022-10-08T13:00:09.578Z,1.33
2022-10-08T13:02:39.504Z,1.33
2022-10-08T13:05:24.161Z,1.27
2022-10-08T13:07:54.053Z,1.60
2022-10-08T13:10:24.033Z,1.40
2022-10-08T13:13:05.908Z,1.20
2022-10-08T13:15:35.276Z,1.33
2022-10-08T13:18:14.247Z,1.40
2022-10-08T13:20:56.936Z,1.70
2022-10-08T13:23:27.380Z,1.00
2022-10-08T13:25:55.370Z,1.20
2022-10-08T13:28:48.427Z,1.30
2022-10-08T13:31:24.253Z,1.27
2022-10-08T13:33:52.395Z,1.40
2022-10-08T13:36:22.716Z,1.17
2022-10-08T13:38:52.067Z,1.20
2022-10-08T13:41:24.103Z,1.30
2022-10-08T13:43:52.189Z,1.10
2022-10-08T13:46:20.101Z,1.23
2022-10-08T13:48:48.010Z,1.27
2022-10-08T13:51:15.938Z,1.20
2022-10-08T13:53:45.534Z,1.20
2022-10-08T13:56:14.892Z,1.23
2022-10-08T13:58:42.847Z,1.30
2022-10-08T14:01:10.784Z,1.20
2022-10-08T14:03:38.728Z,1.20
2022-10-08T14:06:06.963Z,1.37
2022-10-08T14:08:36.021Z,1.57
2022-10-08T14:11:03.927Z,1.50
2022-10-08T14:13:33.177Z,1.20
2022-10-08T14:16:01.210Z,1.20
2022-10-08T14:18:29.162Z,1.70
2022-10-08T14:20:57.143Z,1.20
2022-10-08T14:23:25.020Z,1.50
2022-10-08T14:25:54.306Z,1.30
2022-10-08T14:28:22.233Z,1.50
2022-10-08T14:30:51.553Z,1.43
2022-10-08T14:33:19.460Z,1.50
2022-10-08T14:35:50.971Z,1.10
2022-10-08T14:38:18.927Z,1.37
2022-10-08T14:40:47.124Z,1.17
2022-10-08T14:43:15.052Z,1.37
2022-10-08T14:45:43.018Z,1.40
2022-10-08T14:48:12.507Z,1.93
2022-10-08T14:50:40.374Z,1.60
2022-10-08T14:53:08.292Z,1.20
2022-10-08T14:55:54.459Z,1.30
2022-10-08T14:58:22.596Z,1.50
2022-10-08T15:00:54.415Z,1.30
2022-10-08T15:03:24.122Z,1.57
2022-10-08T15:05:52.257Z,1.73
2022-10-08T15:08:20.682Z,1.50
2022-10-08T15:10:48.576Z,1.27
2022-10-08T15:13:16.438Z,1.50
2022-10-08T15:15:45.531Z,1.60
2022-10-08T15:18:14.194Z,1.53
2022-10-08T15:20:43.476Z,1.40
2022-10-08T15:23:11.376Z,1.53
2022-10-08T15:25:40.376Z,1.50
2022-10-08T15:28:08.274Z,1.13
2022-10-08T15:30:36.387Z,1.40
2022-10-08T15:33:05.088Z,1.30
2022-10-08T15:35:36.147Z,1.20
2022-10-08T15:38:05.443Z,1.40
2022-10-08T15:40:33.404Z,1.40
2022-10-08T15:43:01.333Z,1.50
2022-10-08T15:45:29.242Z,1.13
2022-10-08T15:47:57.130Z,1.60
2022-10-08T15:50:25.068Z,1.10
2022-10-08T15:52:53.230Z,1.53
2022-10-08T15:55:22.629Z,1.60
2022-10-08T15:57:50.552Z,1.50
2022-10-08T16:00:18.772Z,1.20
2022-10-08T16:02:47.043Z,1.10
2022-10-08T16:05:15.293Z,1.10
2022-10-08T16:07:43.153Z,1.10
2022-10-08T16:10:11.270Z,1.50
2022-10-08T16:12:40.547Z,1.50
2022-10-08T16:15:09.608Z,1.30
2022-10-08T16:17:37.486Z,1.77
2022-10-08T16:20:06.516Z,1.43
2022-10-08T16:22:34.432Z,1.30
2022-10-08T16:25:02.402Z,1.50
2022-10-08T16:27:30.311Z,1.43
2022-10-08T16:29:59.644Z,1.60
2022-10-08T16:32:27.575Z,1.50
2022-10-08T16:34:55.435Z,1.40
2022-10-08T16:37:23.303Z,1.30
2022-10-08T16:39:51.164Z,1.57
2022-10-08T16:42:19.060Z,1.20
2022-10-08T16:44:47.027Z,1.33
2022-10-08T16:47:16.295Z,1.57
2022-10-08T16:49:44.980Z,1.77
2022-10-08T16:52:13.460Z,1.70
2022-10-08T16:54:41.431Z,1.57
2022-10-08T16:57:09.606Z,1.53
2022-10-08T16:59:37.639Z,1.50
2022-10-08T17:02:05.602Z,3.40
2022-10-08T17:04:39.018Z,2.20
2022-10-08T17:07:07.340Z,2.10
2022-10-08T17:09:35.387Z,2.20
2022-10-08T17:12:03.359Z,2.10
2022-10-08T17:14:33.051Z,2.00
2022-10-08T17:17:01.084Z,1.77
2022-10-08T17:19:29.359Z,2.03
2022-10-08T17:21:58.592Z,1.87
2022-10-08T17:24:26.735Z,1.90
2022-10-08T17:26:54.718Z,2.00
2022-10-08T17:29:22.588Z,2.00
2022-10-08T17:31:50.444Z,1.50
2022-10-08T17:34:18.344Z,1.70
2022-10-08T17:36:47.028Z,1.27
2022-10-08T17:39:16.325Z,1.53
2022-10-08T17:41:44.580Z,1.53
2022-10-08T17:44:13.071Z,1.37
2022-10-08T17:46:43.115Z,1.20
2022-10-08T17:49:11.506Z,1.53
2022-10-08T17:51:40.140Z,1.30
2022-10-08T17:54:11.953Z,1.40
2022-10-08T17:56:41.705Z,1.73
2022-10-08T17:59:09.595Z,1.40
2022-10-08T18:01:41.385Z,1.40
2022-10-08T18:04:15.414Z,1.57
2022-10-08T18:06:46.008Z,1.53
2022-10-08T18:09:16.188Z,1.40
2022-10-08T18:11:48.434Z,1.70
2022-10-08T18:14:17.228Z,1.30
2022-10-08T18:16:48.212Z,1.40
2022-10-08T18:19:16.777Z,1.40
2022-10-08T18:21:44.820Z,1.67
2022-10-08T18:24:12.709Z,1.53
2022-10-08T18:26:40.593Z,1.57
2022-10-08T18:29:11.565Z,1.23
2022-10-08T18:31:41.134Z,1.57
2022-10-08T18:34:12.768Z,1.60
2022-10-08T18:36:40.839Z,1.80
2022-10-08T18:39:11.951Z,1.40
2022-10-08T18:41:41.711Z,1.60
2022-10-08T18:44:13.701Z,1.73
2022-10-08T18:46:42.227Z,1.60
2022-10-08T18:49:13.067Z,1.50
2022-10-08T18:51:40.983Z,1.70
2022-10-08T18:54:10.747Z,1.57
2022-10-08T18:56:40.711Z,1.80
2022-10-08T18:59:12.471Z,1.90
2022-10-08T19:01:43.029Z,1.93
2022-10-08T19:04:14.796Z,2.03
2022-10-08T19:06:45.392Z,2.20
2022-10-08T19:09:14.025Z,2.40
2022-10-08T19:11:44.856Z,2.03
2022-10-08T19:14:16.873Z,2.53
2022-10-08T19:16:45.526Z,2.73
2022-10-08T19:19:15.978Z,2.40
2022-10-08T19:21:44.635Z,2.70
2022-10-08T19:24:15.133Z,3.20
2022-10-08T19:26:43.347Z,2.80
2022-10-08T19:29:17.161Z,3.00
2022-10-08T19:31:47.403Z,3.00
2022-10-08T19:34:17.024Z,3.00
2022-10-08T19:36:45.407Z,2.83
2022-10-08T19:39:16.151Z,3.23
2022-10-08T19:41:44.984Z,3.23
2022-10-08T19:44:13.050Z,3.07
2022-10-08T19:46:42.421Z,2.53
2022-10-08T19:49:11.026Z,3.07
2022-10-08T19:51:39.426Z,3.27
2022-10-08T19:54:07.854Z,3.10
2022-10-08T19:56:36.339Z,3.10
2022-10-08T19:59:05.080Z,3.27
2022-10-08T20:01:34.899Z,4.90
2022-10-08T20:04:06.108Z,4.60
2022-10-08T20:06:35.893Z,5.07
2022-10-08T20:09:05.295Z,5.13
2022-10-08T20:11:33.870Z,4.93
2022-10-08T20:14:02.050Z,7.83
2022-10-08T20:16:31.579Z,6.73
2022-10-08T20:19:01.238Z,6.60
2022-10-08T20:21:32.746Z,5.40
2022-10-08T20:24:01.112Z,4.97
2022-10-08T20:26:30.551Z,5.53
2022-10-08T20:29:00.144Z,5.07
2022-10-08T20:31:30.433Z,9.80
2022-10-08T20:34:00.783Z,13.80
2022-10-08T20:36:30.955Z,9.60
2022-10-08T20:38:59.722Z,7.17
2022-10-08T20:41:30.941Z,5.83
2022-10-08T20:44:02.247Z,5.63
2022-10-08T20:46:31.132Z,5.60
2022-10-08T20:48:59.272Z,6.37
2022-10-08T20:51:30.213Z,6.73
2022-10-08T20:54:00.163Z,7.50
2022-10-08T20:56:29.386Z,7.27
2022-10-08T20:58:58.082Z,7.47
2022-10-08T21:01:28.296Z,8.33
2022-10-08T21:03:56.791Z,9.73
2022-10-08T21:06:26.580Z,10.37
2022-10-08T21:08:57.328Z,10.30
2022-10-08T21:11:26.946Z,9.43
2022-10-08T21:13:54.890Z,9.87
2022-10-08T21:16:25.797Z,10.10
2022-10-08T21:18:56.700Z,10.67
2022-10-08T21:21:25.477Z,9.97
2022-10-08T21:23:54.824Z,9.53
2022-10-08T21:26:25.263Z,8.53
2022-10-08T21:28:55.705Z,9.13
2022-10-08T21:31:24.571Z,9.43
2022-10-08T21:33:53.963Z,9.53
2022-10-08T21:36:23.351Z,10.00
2022-10-08T21:38:51.825Z,9.73
2022-10-08T21:41:23.708Z,9.60
2022-10-08T21:43:53.053Z,9.00
2022-10-08T21:46:22.805Z,9.00
2022-10-08T21:48:55.135Z,9.73
2022-10-08T21:51:23.467Z,9.77
2022-10-08T21:53:53.620Z,10.70
2022-10-08T21:56:24.880Z,9.83
2022-10-08T21:58:55.064Z,9.93
2022-10-08T22:01:25.609Z,10.80
2022-10-08T22:03:55.175Z,9.83
2022-10-08T22:06:25.539Z,10.53
2022-10-08T22:08:53.526Z,11.73
2022-10-08T22:11:23.165Z,11.67
2022-10-08T22:13:51.407Z,11.03
2022-10-08T22:16:21.323Z,11.23
2022-10-08T22:18:49.808Z,12.20
2022-10-08T22:21:19.918Z,13.57
2022-10-08T22:23:48.673Z,13.27
2022-10-08T22:26:18.800Z,11.90
2022-10-08T22:28:48.678Z,12.13
2022-10-08T22:31:18.650Z,12.20
2022-10-08T22:33:47.216Z,12.27
2022-10-08T22:36:17.580Z,12.17
2022-10-08T22:38:45.936Z,12.00
2022-10-08T22:41:15.588Z,11.80
2022-10-08T22:43:44.328Z,12.07
2022-10-08T22:46:16.214Z,12.10
2022-10-08T22:48:44.625Z,12.07
2022-10-08T22:51:14.874Z,11.90
2022-10-08T22:53:43.341Z,11.30
2022-10-08T22:56:13.577Z,10.63
2022-10-08T22:58:41.616Z,11.10
2022-10-08T23:01:13.596Z,10.50
2022-10-08T23:03:42.063Z,10.33
2022-10-08T23:06:16.099Z,10.47
2022-10-08T23:08:45.259Z,9.77
2022-10-08T23:11:13.871Z,9.90
2022-10-08T23:13:45.425Z,10.13
2022-10-08T23:16:16.700Z,9.93
2022-10-08T23:18:47.056Z,9.60
2022-10-08T23:21:17.029Z,11.77
2022-10-08T23:23:46.107Z,10.23
2022-10-08T23:26:14.839Z,10.43
2022-10-08T23:28:43.659Z,9.93
2022-10-08T23:31:14.868Z,10.87
2022-10-08T23:33:45.190Z,9.60
2022-10-08T23:36:15.670Z,10.43
2022-10-08T23:38:43.661Z,10.03
2022-10-08T23:41:13.359Z,10.40
2022-10-08T23:43:43.610Z,10.23
2022-10-08T23:46:14.978Z,10.43
2022-10-08T23:48:43.243Z,10.70
2022-10-08T23:51:12.923Z,8.77
2022-10-08T23:53:41.345Z,9.93
2022-10-08T23:56:09.973Z,10.07
2022-10-08T23:58:38.248Z,9.63
